sensor_id;sensor_type;location;lat;lon;timestamp;P1;durP1;ratioP1;P2;durP2;ratioP2
21458;SDS011;10891;49.350;19.386;2023-03-01T00:02:20;91.77;;;35.47;;
21458;SDS011;10891;49.350;19.386;2023-03-01T00:04:48;85.27;;;35.57;;
21458;SDS011;10891;49.350;19.386;2023-03-01T00:07:15;92.37;;;36.70;;
21458;SDS011;10891;49.350;19.386;2023-03-01T00:09:42;91.27;;;36.07;;
21458;SDS011;10891;49.350;19.386;2023-03-01T00:12:12;92.27;;;38.33;;
21458;SDS011;10891;49.350;19.386;2023-03-01T00:14:39;119.53;;;41.83;;
21458;SDS011;10891;49.350;19.386;2023-03-01T00:17:05;116.07;;;43.30;;
21458;SDS011;10891;49.350;19.386;2023-03-01T00:19:32;136.47;;;47.53;;
21458;SDS011;10891;49.350;19.386;2023-03-01T00:21:59;103.43;;;39.97;;
21458;SDS011;10891;49.350;19.386;2023-03-01T00:24:26;92.17;;;35.77;;
21458;SDS011;10891;49.350;19.386;2023-03-01T00:26:53;86.97;;;35.37;;
21458;SDS011;10891;49.350;19.386;2023-03-01T00:29:23;95.57;;;38.90;;
21458;SDS011;10891;49.350;19.386;2023-03-01T00:31:49;100.70;;;40.13;;
21458;SDS011;10891;49.350;19.386;2023-03-01T00:34:16;105.63;;;44.07;;
21458;SDS011;10891;49.350;19.386;2023-03-01T00:36:43;99.50;;;38.93;;
21458;SDS011;10891;49.350;19.386;2023-03-01T00:39:11;79.23;;;34.30;;
21458;SDS011;10891;49.350;19.386;2023-03-01T00:41:39;83.10;;;35.37;;
21458;SDS011;10891;49.350;19.386;2023-03-01T00:44:06;86.60;;;37.53;;
21458;SDS011;10891;49.350;19.386;2023-03-01T00:46:35;103.30;;;39.27;;
21458;SDS011;10891;49.350;19.386;2023-03-01T00:49:02;117.03;;;45.13;;
21458;SDS011;10891;49.350;19.386;2023-03-01T00:51:29;90.67;;;36.87;;
21458;SDS011;10891;49.350;19.386;2023-03-01T00:53:57;86.33;;;33.17;;
21458;SDS011;10891;49.350;19.386;2023-03-01T00:56:25;105.00;;;38.80;;
21458;SDS011;10891;49.350;19.386;2023-03-01T00:58:52;72.43;;;29.37;;
21458;SDS011;10891;49.350;19.386;2023-03-01T01:01:20;82.00;;;31.70;;
21458;SDS011;10891;49.350;19.386;2023-03-01T01:03:51;76.10;;;32.07;;
21458;SDS011;10891;49.350;19.386;2023-03-01T01:06:20;69.73;;;28.20;;
21458;SDS011;10891;49.350;19.386;2023-03-01T01:08:48;75.23;;;30.57;;
21458;SDS011;10891;49.350;19.386;2023-03-01T01:11:16;72.67;;;28.43;;
21458;SDS011;10891;49.350;19.386;2023-03-01T01:13:44;74.50;;;27.97;;
21458;SDS011;10891;49.350;19.386;2023-03-01T01:16:11;66.13;;;27.07;;
21458;SDS011;10891;49.350;19.386;2023-03-01T01:18:39;57.00;;;25.23;;
21458;SDS011;10891;49.350;19.386;2023-03-01T01:21:08;71.33;;;28.53;;
21458;SDS011;10891;49.350;19.386;2023-03-01T01:23:36;69.63;;;29.83;;
21458;SDS011;10891;49.350;19.386;2023-03-01T01:26:04;80.53;;;33.77;;
21458;SDS011;10891;49.350;19.386;2023-03-01T01:28:32;78.23;;;34.20;;
21458;SDS011;10891;49.350;19.386;2023-03-01T01:30:59;80.13;;;30.50;;
21458;SDS011;10891;49.350;19.386;2023-03-01T01:33:26;66.93;;;28.07;;
21458;SDS011;10891;49.350;19.386;2023-03-01T01:35:54;73.43;;;32.67;;
21458;SDS011;10891;49.350;19.386;2023-03-01T01:38:22;93.93;;;33.63;;
21458;SDS011;10891;49.350;19.386;2023-03-01T01:40:49;80.33;;;33.27;;
21458;SDS011;10891;49.350;19.386;2023-03-01T01:43:21;78.13;;;31.33;;
21458;SDS011;10891;49.350;19.386;2023-03-01T01:45:49;87.87;;;32.97;;
21458;SDS011;10891;49.350;19.386;2023-03-01T01:48:18;82.80;;;34.30;;
21458;SDS011;10891;49.350;19.386;2023-03-01T01:50:49;82.37;;;32.97;;
21458;SDS011;10891;49.350;19.386;2023-03-01T01:53:22;84.40;;;32.90;;
21458;SDS011;10891;49.350;19.386;2023-03-01T01:55:51;81.80;;;32.60;;
21458;SDS011;10891;49.350;19.386;2023-03-01T01:58:22;77.87;;;34.50;;
21458;SDS011;10891;49.350;19.386;2023-03-01T02:00:50;89.33;;;37.70;;
21458;SDS011;10891;49.350;19.386;2023-03-01T02:03:18;85.70;;;33.93;;
21458;SDS011;10891;49.350;19.386;2023-03-01T02:05:50;83.20;;;33.20;;
21458;SDS011;10891;49.350;19.386;2023-03-01T02:08:23;65.43;;;29.73;;
21458;SDS011;10891;49.350;19.386;2023-03-01T02:10:52;66.00;;;28.70;;
21458;SDS011;10891;49.350;19.386;2023-03-01T02:13:21;80.30;;;31.43;;
21458;SDS011;10891;49.350;19.386;2023-03-01T02:15:48;65.20;;;26.70;;
21458;SDS011;10891;49.350;19.386;2023-03-01T02:18:16;76.03;;;31.93;;
21458;SDS011;10891;49.350;19.386;2023-03-01T02:20:48;57.90;;;24.80;;
21458;SDS011;10891;49.350;19.386;2023-03-01T02:23:26;52.47;;;23.17;;
21458;SDS011;10891;49.350;19.386;2023-03-01T02:25:56;49.60;;;22.53;;
21458;SDS011;10891;49.350;19.386;2023-03-01T02:28:32;54.63;;;22.80;;
21458;SDS011;10891;49.350;19.386;2023-03-01T02:31:01;52.73;;;21.93;;
21458;SDS011;10891;49.350;19.386;2023-03-01T02:33:47;49.13;;;21.23;;
21458;SDS011;10891;49.350;19.386;2023-03-01T02:36:15;57.07;;;23.03;;
21458;SDS011;10891;49.350;19.386;2023-03-01T02:38:46;64.50;;;25.00;;
21458;SDS011;10891;49.350;19.386;2023-03-01T02:41:15;57.93;;;23.23;;
21458;SDS011;10891;49.350;19.386;2023-03-01T02:43:44;48.87;;;22.20;;
21458;SDS011;10891;49.350;19.386;2023-03-01T02:46:14;55.03;;;22.27;;
21458;SDS011;10891;49.350;19.386;2023-03-01T02:48:45;61.47;;;24.20;;
21458;SDS011;10891;49.350;19.386;2023-03-01T02:51:22;50.23;;;22.27;;
21458;SDS011;10891;49.350;19.386;2023-03-01T02:54:03;52.60;;;22.90;;
21458;SDS011;10891;49.350;19.386;2023-03-01T02:56:36;56.03;;;21.60;;
21458;SDS011;10891;49.350;19.386;2023-03-01T02:59:04;59.93;;;26.47;;
21458;SDS011;10891;49.350;19.386;2023-03-01T03:01:32;59.80;;;23.97;;
21458;SDS011;10891;49.350;19.386;2023-03-01T03:04:03;54.73;;;24.03;;
21458;SDS011;10891;49.350;19.386;2023-03-01T03:06:31;56.77;;;25.20;;
21458;SDS011;10891;49.350;19.386;2023-03-01T03:08:58;49.17;;;21.67;;
21458;SDS011;10891;49.350;19.386;2023-03-01T03:11:25;60.03;;;23.03;;
21458;SDS011;10891;49.350;19.386;2023-03-01T03:13:52;55.37;;;25.03;;
21458;SDS011;10891;49.350;19.386;2023-03-01T03:16:20;59.20;;;25.67;;
21458;SDS011;10891;49.350;19.386;2023-03-01T03:18:48;63.30;;;26.47;;
21458;SDS011;10891;49.350;19.386;2023-03-01T03:21:15;61.43;;;24.93;;
21458;SDS011;10891;49.350;19.386;2023-03-01T03:23:42;74.43;;;31.53;;
21458;SDS011;10891;49.350;19.386;2023-03-01T03:26:09;61.30;;;28.87;;
21458;SDS011;10891;49.350;19.386;2023-03-01T03:28:38;79.83;;;35.17;;
21458;SDS011;10891;49.350;19.386;2023-03-01T03:31:06;65.67;;;28.10;;
21458;SDS011;10891;49.350;19.386;2023-03-01T03:33:34;55.73;;;23.40;;
21458;SDS011;10891;49.350;19.386;2023-03-01T03:36:02;47.30;;;22.87;;
21458;SDS011;10891;49.350;19.386;2023-03-01T03:38:29;44.27;;;21.27;;
21458;SDS011;10891;49.350;19.386;2023-03-01T03:41:00;58.20;;;26.63;;
21458;SDS011;10891;49.350;19.386;2023-03-01T03:43:29;48.77;;;21.70;;
21458;SDS011;10891;49.350;19.386;2023-03-01T03:45:57;56.10;;;24.00;;
21458;SDS011;10891;49.350;19.386;2023-03-01T03:48:24;50.30;;;21.57;;
21458;SDS011;10891;49.350;19.386;2023-03-01T03:50:53;57.77;;;24.03;;
21458;SDS011;10891;49.350;19.386;2023-03-01T03:53:21;52.50;;;21.90;;
21458;SDS011;10891;49.350;19.386;2023-03-01T03:55:51;52.80;;;23.07;;
21458;SDS011;10891;49.350;19.386;2023-03-01T03:58:19;54.27;;;22.93;;
21458;SDS011;10891;49.350;19.386;2023-03-01T04:00:48;56.90;;;23.27;;
21458;SDS011;10891;49.350;19.386;2023-03-01T04:03:19;62.90;;;25.00;;
21458;SDS011;10891;49.350;19.386;2023-03-01T04:05:47;69.57;;;25.90;;
21458;SDS011;10891;49.350;19.386;2023-03-01T04:08:16;60.07;;;25.00;;
21458;SDS011;10891;49.350;19.386;2023-03-01T04:10:46;62.37;;;25.60;;
21458;SDS011;10891;49.350;19.386;2023-03-01T04:13:15;55.67;;;24.07;;
21458;SDS011;10891;49.350;19.386;2023-03-01T04:15:44;69.87;;;26.83;;
21458;SDS011;10891;49.350;19.386;2023-03-01T04:18:12;61.80;;;25.07;;
21458;SDS011;10891;49.350;19.386;2023-03-01T04:20:40;52.10;;;22.87;;
21458;SDS011;10891;49.350;19.386;2023-03-01T04:23:08;54.20;;;23.53;;
21458;SDS011;10891;49.350;19.386;2023-03-01T04:25:40;57.37;;;24.50;;
21458;SDS011;10891;49.350;19.386;2023-03-01T04:28:08;60.33;;;24.07;;
21458;SDS011;10891;49.350;19.386;2023-03-01T04:30:36;58.03;;;24.30;;
21458;SDS011;10891;49.350;19.386;2023-03-01T04:33:04;60.43;;;25.30;;
21458;SDS011;10891;49.350;19.386;2023-03-01T04:35:32;70.53;;;28.00;;
21458;SDS011;10891;49.350;19.386;2023-03-01T04:38:00;69.07;;;27.77;;
21458;SDS011;10891;49.350;19.386;2023-03-01T04:40:27;68.77;;;29.03;;
21458;SDS011;10891;49.350;19.386;2023-03-01T04:42:55;71.90;;;28.77;;
21458;SDS011;10891;49.350;19.386;2023-03-01T04:45:22;63.13;;;27.97;;
21458;SDS011;10891;49.350;19.386;2023-03-01T04:47:49;80.07;;;29.67;;
21458;SDS011;10891;49.350;19.386;2023-03-01T04:50:17;71.00;;;28.63;;
21458;SDS011;10891;49.350;19.386;2023-03-01T04:52:47;70.30;;;28.77;;
21458;SDS011;10891;49.350;19.386;2023-03-01T04:55:14;80.90;;;31.87;;
21458;SDS011;10891;49.350;19.386;2023-03-01T04:57:41;91.33;;;37.80;;
21458;SDS011;10891;49.350;19.386;2023-03-01T05:00:11;88.27;;;40.33;;
21458;SDS011;10891;49.350;19.386;2023-03-01T05:02:46;70.30;;;30.97;;
21458;SDS011;10891;49.350;19.386;2023-03-01T05:05:18;66.33;;;29.00;;
21458;SDS011;10891;49.350;19.386;2023-03-01T05:07:46;105.07;;;41.30;;
21458;SDS011;10891;49.350;19.386;2023-03-01T05:10:13;94.63;;;38.93;;
21458;SDS011;10891;49.350;19.386;2023-03-01T05:12:40;77.40;;;31.13;;
21458;SDS011;10891;49.350;19.386;2023-03-01T05:15:08;73.97;;;31.77;;
21458;SDS011;10891;49.350;19.386;2023-03-01T05:17:36;76.77;;;29.90;;
21458;SDS011;10891;49.350;19.386;2023-03-01T05:20:03;60.73;;;26.37;;
21458;SDS011;10891;49.350;19.386;2023-03-01T05:22:33;89.10;;;40.33;;
21458;SDS011;10891;49.350;19.386;2023-03-01T05:25:00;68.17;;;32.20;;
21458;SDS011;10891;49.350;19.386;2023-03-01T05:27:27;66.97;;;30.53;;
21458;SDS011;10891;49.350;19.386;2023-03-01T05:29:54;54.00;;;25.77;;
21458;SDS011;10891;49.350;19.386;2023-03-01T05:32:22;56.33;;;26.40;;
21458;SDS011;10891;49.350;19.386;2023-03-01T05:34:49;90.90;;;39.77;;
21458;SDS011;10891;49.350;19.386;2023-03-01T05:37:17;106.50;;;44.43;;
21458;SDS011;10891;49.350;19.386;2023-03-01T05:39:44;86.70;;;36.70;;
21458;SDS011;10891;49.350;19.386;2023-03-01T05:42:11;100.90;;;40.67;;
21458;SDS011;10891;49.350;19.386;2023-03-01T05:44:38;78.27;;;31.17;;
21458;SDS011;10891;49.350;19.386;2023-03-01T05:47:05;82.43;;;32.70;;
21458;SDS011;10891;49.350;19.386;2023-03-01T05:49:33;105.03;;;36.50;;
21458;SDS011;10891;49.350;19.386;2023-03-01T05:52:00;66.97;;;25.97;;
21458;SDS011;10891;49.350;19.386;2023-03-01T05:54:28;57.93;;;25.13;;
21458;SDS011;10891;49.350;19.386;2023-03-01T05:56:55;83.07;;;32.63;;
21458;SDS011;10891;49.350;19.386;2023-03-01T05:59:22;66.23;;;26.80;;
21458;SDS011;10891;49.350;19.386;2023-03-01T06:01:49;67.57;;;26.07;;
21458;SDS011;10891;49.350;19.386;2023-03-01T06:04:16;66.93;;;26.13;;
21458;SDS011;10891;49.350;19.386;2023-03-01T06:06:45;70.47;;;27.00;;
21458;SDS011;10891;49.350;19.386;2023-03-01T06:09:12;81.37;;;32.80;;
21458;SDS011;10891;49.350;19.386;2023-03-01T06:11:39;77.37;;;34.27;;
21458;SDS011;10891;49.350;19.386;2023-03-01T06:14:07;101.27;;;37.60;;
21458;SDS011;10891;49.350;19.386;2023-03-01T06:16:35;73.07;;;29.57;;
21458;SDS011;10891;49.350;19.386;2023-03-01T06:19:02;99.60;;;40.50;;
21458;SDS011;10891;49.350;19.386;2023-03-01T06:21:29;105.43;;;43.47;;
21458;SDS011;10891;49.350;19.386;2023-03-01T06:23:58;89.53;;;36.83;;
21458;SDS011;10891;49.350;19.386;2023-03-01T06:26:25;105.20;;;39.23;;
21458;SDS011;10891;49.350;19.386;2023-03-01T06:28:52;88.43;;;38.17;;
21458;SDS011;10891;49.350;19.386;2023-03-01T06:31:19;69.57;;;30.07;;
21458;SDS011;10891;49.350;19.386;2023-03-01T06:33:46;69.43;;;27.90;;
21458;SDS011;10891;49.350;19.386;2023-03-01T06:36:13;65.00;;;28.87;;
21458;SDS011;10891;49.350;19.386;2023-03-01T06:38:43;82.90;;;32.73;;
21458;SDS011;10891;49.350;19.386;2023-03-01T06:41:12;85.63;;;35.47;;
21458;SDS011;10891;49.350;19.386;2023-03-01T06:43:39;118.80;;;43.07;;
21458;SDS011;10891;49.350;19.386;2023-03-01T06:46:06;127.93;;;47.83;;
21458;SDS011;10891;49.350;19.386;2023-03-01T06:48:33;115.63;;;38.83;;
21458;SDS011;10891;49.350;19.386;2023-03-01T06:51:00;111.90;;;42.77;;
21458;SDS011;10891;49.350;19.386;2023-03-01T06:53:27;112.97;;;44.10;;
21458;SDS011;10891;49.350;19.386;2023-03-01T06:55:54;121.07;;;46.07;;
21458;SDS011;10891;49.350;19.386;2023-03-01T06:58:23;110.40;;;43.27;;
21458;SDS011;10891;49.350;19.386;2023-03-01T07:00:50;88.17;;;38.67;;
21458;SDS011;10891;49.350;19.386;2023-03-01T07:03:17;91.67;;;38.00;;
21458;SDS011;10891;49.350;19.386;2023-03-01T07:05:43;95.73;;;51.83;;
21458;SDS011;10891;49.350;19.386;2023-03-01T07:08:10;73.80;;;31.27;;
21458;SDS011;10891;49.350;19.386;2023-03-01T07:10:37;65.10;;;29.23;;
21458;SDS011;10891;49.350;19.386;2023-03-01T07:13:04;59.03;;;26.93;;
21458;SDS011;10891;49.350;19.386;2023-03-01T07:15:34;50.80;;;25.63;;
21458;SDS011;10891;49.350;19.386;2023-03-01T07:18:04;53.93;;;24.17;;
21458;SDS011;10891;49.350;19.386;2023-03-01T07:20:31;56.60;;;25.70;;
21458;SDS011;10891;49.350;19.386;2023-03-01T07:22:58;65.97;;;30.03;;
21458;SDS011;10891;49.350;19.386;2023-03-01T07:25:25;58.67;;;26.93;;
21458;SDS011;10891;49.350;19.386;2023-03-01T07:27:52;54.50;;;27.47;;
21458;SDS011;10891;49.350;19.386;2023-03-01T07:30:20;61.40;;;27.07;;
21458;SDS011;10891;49.350;19.386;2023-03-01T07:32:49;55.03;;;25.50;;
21458;SDS011;10891;49.350;19.386;2023-03-01T07:35:16;59.53;;;23.40;;
21458;SDS011;10891;49.350;19.386;2023-03-01T07:37:43;49.83;;;23.53;;
21458;SDS011;10891;49.350;19.386;2023-03-01T07:40:11;46.60;;;21.37;;
21458;SDS011;10891;49.350;19.386;2023-03-01T07:42:39;51.87;;;22.20;;
21458;SDS011;10891;49.350;19.386;2023-03-01T07:45:06;50.73;;;24.07;;
21458;SDS011;10891;49.350;19.386;2023-03-01T07:47:35;53.88;;;23.35;;
21458;SDS011;10891;49.350;19.386;2023-03-01T07:50:05;55.92;;;24.00;;
21458;SDS011;10891;49.350;19.386;2023-03-01T07:52:33;49.27;;;20.43;;
21458;SDS011;10891;49.350;19.386;2023-03-01T07:55:03;49.78;;;22.83;;
21458;SDS011;10891;49.350;19.386;2023-03-01T07:57:32;47.78;;;22.60;;
21458;SDS011;10891;49.350;19.386;2023-03-01T07:59:59;56.80;;;24.50;;
21458;SDS011;10891;49.350;19.386;2023-03-01T08:02:26;57.00;;;24.58;;
21458;SDS011;10891;49.350;19.386;2023-03-01T08:04:53;57.47;;;25.03;;
21458;SDS011;10891;49.350;19.386;2023-03-01T08:07:21;50.15;;;23.92;;
21458;SDS011;10891;49.350;19.386;2023-03-01T08:09:48;54.08;;;25.13;;
21458;SDS011;10891;49.350;19.386;2023-03-01T08:12:15;60.15;;;26.33;;
21458;SDS011;10891;49.350;19.386;2023-03-01T08:14:42;55.22;;;23.98;;
21458;SDS011;10891;49.350;19.386;2023-03-01T08:17:09;50.00;;;23.67;;
21458;SDS011;10891;49.350;19.386;2023-03-01T08:19:36;54.88;;;24.20;;
21458;SDS011;10891;49.350;19.386;2023-03-01T08:22:03;62.58;;;25.80;;
21458;SDS011;10891;49.350;19.386;2023-03-01T08:24:31;61.55;;;28.42;;
21458;SDS011;10891;49.350;19.386;2023-03-01T08:26:58;58.20;;;26.48;;
21458;SDS011;10891;49.350;19.386;2023-03-01T08:29:27;60.65;;;25.52;;
21458;SDS011;10891;49.350;19.386;2023-03-01T08:31:54;52.95;;;23.10;;
21458;SDS011;10891;49.350;19.386;2023-03-01T08:34:21;47.35;;;22.85;;
21458;SDS011;10891;49.350;19.386;2023-03-01T08:36:48;56.38;;;26.17;;
21458;SDS011;10891;49.350;19.386;2023-03-01T08:39:17;52.13;;;24.40;;
21458;SDS011;10891;49.350;19.386;2023-03-01T08:41:47;53.80;;;23.10;;
21458;SDS011;10891;49.350;19.386;2023-03-01T08:44:14;50.95;;;22.83;;
21458;SDS011;10891;49.350;19.386;2023-03-01T08:46:42;43.65;;;21.55;;
21458;SDS011;10891;49.350;19.386;2023-03-01T08:49:11;54.22;;;25.30;;
21458;SDS011;10891;49.350;19.386;2023-03-01T08:51:40;63.25;;;28.50;;
21458;SDS011;10891;49.350;19.386;2023-03-01T08:54:10;63.38;;;28.92;;
21458;SDS011;10891;49.350;19.386;2023-03-01T08:56:39;54.75;;;26.60;;
21458;SDS011;10891;49.350;19.386;2023-03-01T08:59:08;51.90;;;24.23;;
21458;SDS011;10891;49.350;19.386;2023-03-01T09:01:36;54.00;;;25.05;;
21458;SDS011;10891;49.350;19.386;2023-03-01T09:04:03;50.03;;;22.77;;
21458;SDS011;10891;49.350;19.386;2023-03-01T09:06:30;44.38;;;21.15;;
21458;SDS011;10891;49.350;19.386;2023-03-01T09:08:58;46.00;;;23.52;;
21458;SDS011;10891;49.350;19.386;2023-03-01T09:11:26;57.15;;;25.00;;
21458;SDS011;10891;49.350;19.386;2023-03-01T09:13:54;48.10;;;24.67;;
21458;SDS011;10891;49.350;19.386;2023-03-01T09:16:25;53.05;;;27.42;;
21458;SDS011;10891;49.350;19.386;2023-03-01T09:18:53;44.78;;;21.27;;
21458;SDS011;10891;49.350;19.386;2023-03-01T09:21:21;43.13;;;20.63;;
21458;SDS011;10891;49.350;19.386;2023-03-01T09:23:49;35.50;;;18.83;;
21458;SDS011;10891;49.350;19.386;2023-03-01T09:26:16;38.20;;;19.67;;
21458;SDS011;10891;49.350;19.386;2023-03-01T09:28:44;38.30;;;19.88;;
21458;SDS011;10891;49.350;19.386;2023-03-01T09:31:12;43.20;;;19.80;;
21458;SDS011;10891;49.350;19.386;2023-03-01T09:33:42;33.00;;;16.25;;
21458;SDS011;10891;49.350;19.386;2023-03-01T09:36:13;31.30;;;16.25;;
21458;SDS011;10891;49.350;19.386;2023-03-01T09:38:42;37.42;;;19.45;;
21458;SDS011;10891;49.350;19.386;2023-03-01T09:41:10;27.75;;;15.18;;
21458;SDS011;10891;49.350;19.386;2023-03-01T09:43:46;37.10;;;17.67;;
21458;SDS011;10891;49.350;19.386;2023-03-01T09:46:19;37.80;;;18.52;;
21458;SDS011;10891;49.350;19.386;2023-03-01T09:48:50;32.60;;;15.95;;
21458;SDS011;10891;49.350;19.386;2023-03-01T09:51:22;28.10;;;14.00;;
21458;SDS011;10891;49.350;19.386;2023-03-01T09:53:53;25.52;;;12.90;;
21458;SDS011;10891;49.350;19.386;2023-03-01T09:56:24;28.75;;;13.93;;
21458;SDS011;10891;49.350;19.386;2023-03-01T09:58:59;57.60;;;24.92;;
21458;SDS011;10891;49.350;19.386;2023-03-01T10:01:38;31.13;;;16.75;;
21458;SDS011;10891;49.350;19.386;2023-03-01T10:04:20;38.72;;;19.83;;
21458;SDS011;10891;49.350;19.386;2023-03-01T10:06:58;26.33;;;13.95;;
21458;SDS011;10891;49.350;19.386;2023-03-01T10:09:44;28.55;;;14.40;;
21458;SDS011;10891;49.350;19.386;2023-03-01T10:12:13;51.83;;;26.48;;
21458;SDS011;10891;49.350;19.386;2023-03-01T10:14:43;46.97;;;19.17;;
21458;SDS011;10891;49.350;19.386;2023-03-01T10:17:19;34.05;;;18.17;;
21458;SDS011;10891;49.350;19.386;2023-03-01T10:19:55;35.92;;;17.17;;
21458;SDS011;10891;49.350;19.386;2023-03-01T10:22:26;40.38;;;16.90;;
21458;SDS011;10891;49.350;19.386;2023-03-01T10:24:56;43.92;;;19.58;;
21458;SDS011;10891;49.350;19.386;2023-03-01T10:27:25;35.78;;;17.00;;
21458;SDS011;10891;49.350;19.386;2023-03-01T10:30:02;27.63;;;14.80;;
21458;SDS011;10891;49.350;19.386;2023-03-01T10:32:41;27.50;;;14.07;;
21458;SDS011;10891;49.350;19.386;2023-03-01T10:35:19;30.05;;;15.15;;
21458;SDS011;10891;49.350;19.386;2023-03-01T10:37:58;32.20;;;15.93;;
21458;SDS011;10891;49.350;19.386;2023-03-01T10:40:30;27.35;;;14.90;;
21458;SDS011;10891;49.350;19.386;2023-03-01T10:42:57;24.42;;;13.40;;
21458;SDS011;10891;49.350;19.386;2023-03-01T10:45:30;23.75;;;12.48;;
21458;SDS011;10891;49.350;19.386;2023-03-01T10:48:03;27.60;;;13.82;;
21458;SDS011;10891;49.350;19.386;2023-03-01T10:50:41;28.20;;;13.10;;
21458;SDS011;10891;49.350;19.386;2023-03-01T10:56:00;24.17;;;12.88;;
21458;SDS011;10891;49.350;19.386;2023-03-01T10:58:29;19.33;;;10.65;;
21458;SDS011;10891;49.350;19.386;2023-03-01T11:00:58;27.38;;;15.38;;
21458;SDS011;10891;49.350;19.386;2023-03-01T11:03:27;24.77;;;12.90;;
21458;SDS011;10891;49.350;19.386;2023-03-01T11:05:59;24.98;;;11.93;;
21458;SDS011;10891;49.350;19.386;2023-03-01T11:08:29;26.17;;;12.98;;
21458;SDS011;10891;49.350;19.386;2023-03-01T11:11:06;22.25;;;11.55;;
21458;SDS011;10891;49.350;19.386;2023-03-01T11:13:47;30.23;;;13.80;;
21458;SDS011;10891;49.350;19.386;2023-03-01T11:16:22;31.35;;;17.40;;
21458;SDS011;10891;49.350;19.386;2023-03-01T11:19:03;21.30;;;10.73;;
21458;SDS011;10891;49.350;19.386;2023-03-01T11:21:45;23.67;;;12.10;;
21458;SDS011;10891;49.350;19.386;2023-03-01T11:24:19;22.10;;;10.15;;
21458;SDS011;10891;49.350;19.386;2023-03-01T11:26:54;23.17;;;11.35;;
21458;SDS011;10891;49.350;19.386;2023-03-01T11:29:26;22.05;;;11.70;;
21458;SDS011;10891;49.350;19.386;2023-03-01T11:31:59;17.80;;;9.52;;
21458;SDS011;10891;49.350;19.386;2023-03-01T11:34:38;30.25;;;14.35;;
21458;SDS011;10891;49.350;19.386;2023-03-01T11:37:11;66.78;;;21.70;;
21458;SDS011;10891;49.350;19.386;2023-03-01T11:39:51;116.22;;;38.53;;
21458;SDS011;10891;49.350;19.386;2023-03-01T11:42:25;86.50;;;27.52;;
21458;SDS011;10891;49.350;19.386;2023-03-01T11:45:06;113.43;;;41.47;;
21458;SDS011;10891;49.350;19.386;2023-03-01T11:47:42;15.85;;;7.43;;
21458;SDS011;10891;49.350;19.386;2023-03-01T11:50:25;65.80;;;23.38;;
21458;SDS011;10891;49.350;19.386;2023-03-01T11:53:01;28.90;;;13.07;;
21458;SDS011;10891;49.350;19.386;2023-03-01T11:55:49;17.77;;;8.73;;
21458;SDS011;10891;49.350;19.386;2023-03-01T11:58:33;26.92;;;11.65;;
21458;SDS011;10891;49.350;19.386;2023-03-01T12:01:25;29.23;;;11.48;;
21458;SDS011;10891;49.350;19.386;2023-03-01T12:04:24;31.10;;;12.20;;
21458;SDS011;10891;49.350;19.386;2023-03-01T12:07:24;66.10;;;26.42;;
21458;SDS011;10891;49.350;19.386;2023-03-01T12:10:03;23.55;;;11.50;;
21458;SDS011;10891;49.350;19.386;2023-03-01T12:12:54;24.55;;;12.73;;
21458;SDS011;10891;49.350;19.386;2023-03-01T12:15:49;53.05;;;23.52;;
21458;SDS011;10891;49.350;19.386;2023-03-01T12:21:25;28.90;;;14.70;;
21458;SDS011;10891;49.350;19.386;2023-03-01T12:24:13;25.40;;;10.80;;
21458;SDS011;10891;49.350;19.386;2023-03-01T12:27:15;18.98;;;9.10;;
21458;SDS011;10891;49.350;19.386;2023-03-01T12:29:53;25.05;;;10.13;;
21458;SDS011;10891;49.350;19.386;2023-03-01T12:32:34;11.75;;;6.07;;
21458;SDS011;10891;49.350;19.386;2023-03-01T12:38:06;10.93;;;6.30;;
21458;SDS011;10891;49.350;19.386;2023-03-01T12:40:55;13.25;;;6.85;;
21458;SDS011;10891;49.350;19.386;2023-03-01T12:43:39;21.00;;;10.23;;
21458;SDS011;10891;49.350;19.386;2023-03-01T12:46:21;18.75;;;9.40;;
21458;SDS011;10891;49.350;19.386;2023-03-01T12:48:59;13.27;;;6.38;;
21458;SDS011;10891;49.350;19.386;2023-03-01T12:51:34;14.93;;;7.95;;
21458;SDS011;10891;49.350;19.386;2023-03-01T12:54:05;22.17;;;9.43;;
21458;SDS011;10891;49.350;19.386;2023-03-01T12:56:40;19.73;;;9.00;;
21458;SDS011;10891;49.350;19.386;2023-03-01T12:59:13;27.92;;;15.60;;
21458;SDS011;10891;49.350;19.386;2023-03-01T13:01:45;116.40;;;36.80;;
21458;SDS011;10891;49.350;19.386;2023-03-01T13:04:28;224.75;;;72.22;;
21458;SDS011;10891;49.350;19.386;2023-03-01T13:07:05;105.60;;;35.70;;
21458;SDS011;10891;49.350;19.386;2023-03-01T13:09:47;122.00;;;44.85;;
21458;SDS011;10891;49.350;19.386;2023-03-01T13:15:34;18.30;;;8.80;;
21458;SDS011;10891;49.350;19.386;2023-03-01T13:18:03;29.30;;;12.55;;
21458;SDS011;10891;49.350;19.386;2023-03-01T13:20:52;23.50;;;10.32;;
21458;SDS011;10891;49.350;19.386;2023-03-01T13:23:26;74.70;;;29.77;;
21458;SDS011;10891;49.350;19.386;2023-03-01T13:26:01;20.33;;;10.65;;
21458;SDS011;10891;49.350;19.386;2023-03-01T13:28:50;15.02;;;7.35;;
21458;SDS011;10891;49.350;19.386;2023-03-01T13:37:25;19.55;;;10.25;;
21458;SDS011;10891;49.350;19.386;2023-03-01T13:39:55;18.13;;;9.35;;
21458;SDS011;10891;49.350;19.386;2023-03-01T13:48:03;14.32;;;7.20;;
21458;SDS011;10891;49.350;19.386;2023-03-01T13:50:38;74.97;;;30.63;;
21458;SDS011;10891;49.350;19.386;2023-03-01T13:53:16;19.42;;;9.30;;
21458;SDS011;10891;49.350;19.386;2023-03-01T13:55:46;18.02;;;9.20;;
21458;SDS011;10891;49.350;19.386;2023-03-01T13:58:16;18.02;;;9.13;;
21458;SDS011;10891;49.350;19.386;2023-03-01T14:00:54;12.85;;;6.70;;
21458;SDS011;10891;49.350;19.386;2023-03-01T14:03:22;23.63;;;12.25;;
21458;SDS011;10891;49.350;19.386;2023-03-01T14:06:00;20.25;;;9.10;;
21458;SDS011;10891;49.350;19.386;2023-03-01T14:08:36;12.65;;;7.65;;
21458;SDS011;10891;49.350;19.386;2023-03-01T14:11:08;29.48;;;15.75;;
21458;SDS011;10891;49.350;19.386;2023-03-01T14:14:16;13.50;;;7.40;;
21458;SDS011;10891;49.350;19.386;2023-03-01T14:16:58;21.67;;;12.05;;
21458;SDS011;10891;49.350;19.386;2023-03-01T14:19:36;78.95;;;32.50;;
21458;SDS011;10891;49.350;19.386;2023-03-01T14:22:05;29.05;;;11.55;;
21458;SDS011;10891;49.350;19.386;2023-03-01T14:24:46;18.55;;;8.80;;
21458;SDS011;10891;49.350;19.386;2023-03-01T14:27:17;28.65;;;19.33;;
21458;SDS011;10891;49.350;19.386;2023-03-01T14:29:45;20.85;;;9.90;;
21458;SDS011;10891;49.350;19.386;2023-03-01T14:32:22;18.83;;;8.85;;
21458;SDS011;10891;49.350;19.386;2023-03-01T14:34:51;88.03;;;31.98;;
21458;SDS011;10891;49.350;19.386;2023-03-01T14:37:20;24.83;;;10.95;;
21458;SDS011;10891;49.350;19.386;2023-03-01T14:39:52;17.23;;;8.77;;
21458;SDS011;10891;49.350;19.386;2023-03-01T14:42:19;14.20;;;7.78;;
21458;SDS011;10891;49.350;19.386;2023-03-01T14:44:48;18.90;;;9.10;;
21458;SDS011;10891;49.350;19.386;2023-03-01T14:47:25;20.98;;;9.30;;
21458;SDS011;10891;49.350;19.386;2023-03-01T14:49:57;17.50;;;9.48;;
21458;SDS011;10891;49.350;19.386;2023-03-01T14:52:27;62.15;;;19.20;;
21458;SDS011;10891;49.350;19.386;2023-03-01T14:55:01;26.80;;;10.60;;